Time;durP1;ratioP1;P1;durP2;ratioP2;P2;SDS_P1;SDS_P2;PMS_P1;PMS_P2;Temp;Humidity;BMP_temperature;BMP_pressure;BME280_temperature;BME280_humidity;BME280_pressure;Samples;Min_cycle;Max_cycle;Signal;HPM_P1;HPM_P2
2023/04/27 00:01:13;;;;;;;0.98;0.35;;;;;;;10.69;85.58;100744.25;5067627;28;20038;-69
2023/04/27 00:03:40;;;;;;;1.25;0.30;;;;;;;10.76;86.30;100745.34;5066131;28;20425;-68
2023/04/27 00:06:07;;;;;;;1.20;0.30;;;;;;;10.84;86.36;100745.50;5063192;28;20163;-68
2023/04/27 00:08:32;;;;;;;1.20;0.20;;;;;;;10.95;85.59;100749.69;5064959;28;20360;-68
2023/04/27 00:10:58;;;;;;;3.97;0.40;;;;;;;10.94;85.96;100748.06;5073248;28;20047;-68
2023/04/27 00:13:23;;;;;;;2.22;0.50;;;;;;;10.93;86.04;100744.63;5068784;28;20044;-68
2023/04/27 00:15:49;;;;;;;1.02;0.38;;;;;;;10.95;85.58;100742.69;5066690;28;20029;-68
2023/04/27 00:18:14;;;;;;;1.67;0.30;;;;;;;10.97;85.30;100739.94;5069562;28;20041;-68
2023/04/27 00:20:40;;;;;;;1.27;0.50;;;;;;;11.02;85.31;100735.16;5074514;28;20037;-68
2023/04/27 00:23:06;;;;;;;0.63;0.32;;;;;;;11.05;85.62;100734.88;5063740;28;20086;-68
2023/04/27 00:25:31;;;;;;;1.08;0.40;;;;;;;11.09;85.39;100738.00;5068661;28;20107;-68
2023/04/27 00:27:57;;;;;;;1.95;0.40;;;;;;;11.06;86.02;100731.28;5074833;28;20058;-68
2023/04/27 00:30:22;;;;;;;2.30;0.50;;;;;;;11.04;86.26;100735.00;5070711;28;20029;-68
2023/04/27 00:32:47;;;;;;;0.70;0.38;;;;;;;11.02;86.65;100745.56;5067883;28;20094;-69
2023/04/27 00:35:13;;;;;;;0.80;0.40;;;;;;;11.02;86.90;100734.31;5070774;28;20036;-68
2023/04/27 00:37:38;;;;;;;6.50;0.35;;;;;;;10.97;87.69;100743.38;5071280;28;20048;-68
2023/04/27 00:40:06;;;;;;;2.67;0.40;;;;;;;10.87;88.44;100739.19;5068526;28;20029;-68
2023/04/27 00:42:32;;;;;;;1.23;0.40;;;;;;;10.88;88.48;100740.78;5071215;28;20384;-68
2023/04/27 00:44:58;;;;;;;3.85;0.40;;;;;;;10.83;88.22;100741.22;5073435;28;20024;-67
2023/04/27 00:47:23;;;;;;;2.45;0.60;;;;;;;10.93;87.42;100752.44;5069800;28;20032;-68
2023/04/27 00:49:49;;;;;;;1.02;0.40;;;;;;;10.95;88.59;100747.91;5072559;28;20093;-69
2023/04/27 00:52:15;;;;;;;1.02;0.50;;;;;;;10.91;90.10;100750.94;5070173;28;20056;-68
2023/04/27 00:54:40;;;;;;;3.42;0.30;;;;;;;10.73;91.79;100752.63;5064644;28;20037;-68
2023/04/27 00:57:07;;;;;;;0.68;0.38;;;;;;;10.52;92.20;100752.75;5067539;28;20035;-68
2023/04/27 00:59:33;;;;;;;1.05;0.40;;;;;;;10.37;92.09;100748.94;5069377;28;20032;-68
2023/04/27 01:01:58;;;;;;;1.13;0.47;;;;;;;10.35;92.32;100763.88;5075006;28;20032;-68
2023/04/27 01:04:24;;;;;;;1.25;0.63;;;;;;;10.32;92.82;100762.38;5071538;28;20043;-68
2023/04/27 01:06:50;;;;;;;1.30;0.50;;;;;;;10.31;92.08;100765.94;5066345;28;20083;-68
2023/04/27 01:09:18;;;;;;;0.90;0.50;;;;;;;10.31;91.68;100760.72;5072079;28;20043;-69
2023/04/27 01:11:44;;;;;;;1.20;0.65;;;;;;;10.32;91.95;100756.34;5064188;28;20446;-68
2023/04/27 01:14:10;;;;;;;2.28;0.70;;;;;;;10.28;92.83;100766.19;5065837;28;20038;-68
2023/04/27 01:16:36;;;;;;;1.48;0.65;;;;;;;10.29;92.62;100766.06;5066991;28;20074;-68
2023/04/27 01:19:01;;;;;;;1.35;0.60;;;;;;;10.32;93.16;100766.75;5067668;28;20075;-68
2023/04/27 01:21:27;;;;;;;1.98;0.65;;;;;;;10.29;93.90;100765.25;5061447;28;20029;-68
2023/04/27 01:23:53;;;;;;;2.72;0.90;;;;;;;10.26;95.11;100758.53;5066432;28;20089;-68
2023/04/27 01:26:18;;;;;;;1.52;0.60;;;;;;;10.17;94.41;100758.47;5061819;28;20520;-68
2023/04/27 01:28:44;;;;;;;4.10;0.93;;;;;;;10.10;93.13;100766.00;5070624;28;20035;-68
2023/04/27 01:31:13;;;;;;;2.45;0.70;;;;;;;10.03;93.58;100761.44;5071060;28;20488;-68
2023/04/27 01:33:40;;;;;;;2.33;0.90;;;;;;;9.96;94.58;100758.56;5066366;28;20381;-68
2023/04/27 01:36:06;;;;;;;3.50;1.00;;;;;;;9.92;96.02;100765.78;5076091;28;20085;-68
2023/04/27 01:38:32;;;;;;;3.00;1.00;;;;;;;9.89;97.06;100768.69;5066987;28;20480;-68
2023/04/27 01:41:02;;;;;;;3.13;0.98;;;;;;;9.85;97.43;100769.91;5064291;28;20035;-69
2023/04/27 01:43:28;;;;;;;1.83;0.80;;;;;;;9.82;98.54;100772.78;5070647;28;20870;-68
2023/04/27 01:45:54;;;;;;;1.85;0.77;;;;;;;9.77;98.99;100776.72;5068081;28;20040;-68
2023/04/27 01:48:19;;;;;;;3.60;0.68;;;;;;;9.73;100.00;100775.34;5071147;28;20032;-68
2023/04/27 01:50:45;;;;;;;1.48;0.82;;;;;;;9.68;99.61;100783.53;5062730;28;20031;-68
2023/04/27 01:53:10;;;;;;;1.80;0.70;;;;;;;9.65;99.06;100784.63;5060101;28;20033;-68
2023/04/27 01:55:36;;;;;;;1.98;0.63;;;;;;;9.65;100.00;100794.19;5070164;28;20023;-69
2023/04/27 01:58:01;;;;;;;2.40;0.80;;;;;;;9.63;100.00;100791.72;5059218;28;20108;-68
2023/04/27 02:00:27;;;;;;;2.70;1.20;;;;;;;9.62;100.00;100795.28;5068592;28;20047;-68
2023/04/27 02:02:52;;;;;;;3.70;0.63;;;;;;;9.62;100.00;100787.47;5070227;28;20368;-68
2023/04/27 02:05:18;;;;;;;1.98;0.70;;;;;;;9.67;100.00;100789.69;5045674;28;20139;-68
2023/04/27 02:07:44;;;;;;;3.38;0.63;;;;;;;9.67;100.00;100788.88;5065701;28;20032;-68
2023/04/27 02:10:09;;;;;;;2.25;0.68;;;;;;;9.68;100.00;100783.53;5063596;28;20029;-68
2023/04/27 02:12:35;;;;;;;1.83;0.93;;;;;;;9.70;100.00;100794.63;5045372;28;20116;-68
2023/04/27 02:15:02;;;;;;;1.67;0.60;;;;;;;9.72;100.00;100799.72;5067247;28;20046;-68
2023/04/27 02:17:28;;;;;;;1.50;0.70;;;;;;;9.71;100.00;100791.09;5071849;28;20040;-68
2023/04/27 02:19:54;;;;;;;2.53;0.80;;;;;;;9.74;100.00;100790.00;5062144;28;20034;-68
2023/04/27 02:22:19;;;;;;;3.05;0.90;;;;;;;9.74;100.00;100796.03;5065027;28;20028;-68
2023/04/27 02:24:45;;;;;;;1.50;0.70;;;;;;;9.75;100.00;100799.44;5067856;28;20506;-69
2023/04/27 02:27:10;;;;;;;1.55;0.68;;;;;;;9.75;100.00;100791.66;5063388;28;20021;-68
2023/04/27 02:29:37;;;;;;;3.55;0.70;;;;;;;9.73;100.00;100790.97;5058825;28;20508;-68
2023/04/27 02:32:06;;;;;;;2.17;0.68;;;;;;;9.74;100.00;100784.78;5072039;28;20024;-68
2023/04/27 02:34:32;;;;;;;1.38;0.50;;;;;;;9.74;100.00;100777.81;5065381;28;20380;-68
2023/04/27 02:36:57;;;;;;;1.67;0.52;;;;;;;9.77;100.00;100787.13;5063557;28;20102;-68
2023/04/27 02:39:23;;;;;;;2.33;0.70;;;;;;;9.79;100.00;100790.44;5068754;28;20439;-68
2023/04/27 02:41:48;;;;;;;4.03;0.80;;;;;;;9.80;100.00;100786.88;5069240;28;20039;-68
2023/04/27 02:44:14;;;;;;;4.32;0.90;;;;;;;9.82;100.00;100800.59;5068663;28;20063;-68
2023/04/27 02:46:39;;;;;;;1.30;0.70;;;;;;;9.83;100.00;100790.03;5063877;28;20131;-68
2023/04/27 02:49:04;;;;;;;2.38;0.47;;;;;;;9.84;100.00;100801.28;5082054;28;20082;-68
2023/04/27 02:51:30;;;;;;;1.63;0.70;;;;;;;9.83;100.00;100797.84;5065084;28;20438;-69
2023/04/27 02:53:55;;;;;;;3.60;0.93;;;;;;;9.84;100.00;100793.47;5068159;28;20044;-68
2023/04/27 02:56:21;;;;;;;2.72;0.60;;;;;;;9.80;100.00;100792.91;5055964;28;20078;-68
2023/04/27 02:58:46;;;;;;;3.17;0.93;;;;;;;9.78;100.00;100797.41;5077069;28;20020;-69
2023/04/27 03:01:14;;;;;;;4.80;0.98;;;;;;;9.78;100.00;100799.19;5056886;28;20039;-68
2023/04/27 03:03:40;;;;;;;4.00;1.02;;;;;;;9.81;100.00;100798.94;5065367;28;20512;-68
2023/04/27 03:06:05;;;;;;;1.25;0.60;;;;;;;9.85;100.00;100810.72;5063127;28;20044;-68
2023/04/27 03:08:31;;;;;;;1.83;0.65;;;;;;;9.80;100.00;100805.91;5069023;28;20074;-69
2023/04/27 03:10:56;;;;;;;1.75;0.80;;;;;;;9.82;100.00;100801.41;5067601;28;20024;-68
2023/04/27 03:13:22;;;;;;;2.67;0.65;;;;;;;9.82;100.00;100808.38;5070435;28;20389;-68
2023/04/27 03:15:48;;;;;;;2.67;1.02;;;;;;;9.84;100.00;100809.91;5065850;28;20028;-70
2023/04/27 03:18:13;;;;;;;1.73;0.52;;;;;;;9.92;100.00;100804.84;5074651;28;20038;-68
2023/04/27 03:20:38;;;;;;;1.83;0.75;;;;;;;9.93;100.00;100805.66;5070020;28;20070;-68
2023/04/27 03:23:05;;;;;;;1.13;0.68;;;;;;;9.89;100.00;100802.53;5074807;28;20036;-69
2023/04/27 03:25:31;;;;;;;1.90;0.70;;;;;;;9.90;100.00;100798.16;5059265;28;20041;-68
2023/04/27 03:27:56;;;;;;;3.22;0.50;;;;;;;9.84;100.00;100804.69;5064234;28;20077;-68
2023/04/27 03:30:21;;;;;;;2.10;0.77;;;;;;;9.81;100.00;100812.78;5069634;28;20040;-69
2023/04/27 03:32:47;;;;;;;1.38;0.77;;;;;;;9.84;100.00;100804.69;5072747;28;20025;-68
2023/04/27 03:35:12;;;;;;;2.17;0.82;;;;;;;9.85;100.00;100806.34;5069205;28;20051;-68
2023/04/27 03:37:38;;;;;;;3.05;1.55;;;;;;;9.84;100.00;100814.28;5049470;28;20044;-68
2023/04/27 03:40:06;;;;;;;2.75;1.20;;;;;;;9.73;100.00;100820.41;5055273;28;20090;-68
2023/04/27 03:42:31;;;;;;;3.10;1.52;;;;;;;9.62;100.00;100829.09;5060015;28;20016;-68
2023/04/27 03:44:57;;;;;;;1.83;1.00;;;;;;;9.56;100.00;100821.81;5067686;28;20043;-68
2023/04/27 03:47:22;;;;;;;2.75;1.23;;;;;;;9.56;100.00;100824.41;5061656;28;20036;-68
2023/04/27 03:49:48;;;;;;;2.67;1.40;;;;;;;9.54;100.00;100838.50;5060360;28;20033;-69
2023/04/27 03:52:13;;;;;;;4.30;1.52;;;;;;;9.57;100.00;100831.28;5062218;28;20152;-68
2023/04/27 03:54:39;;;;;;;3.80;1.80;;;;;;;9.58;100.00;100835.53;5062907;28;20067;-68
2023/04/27 03:57:04;;;;;;;3.92;1.35;;;;;;;9.57;100.00;100844.28;5058113;28;20042;-68
2023/04/27 03:59:29;;;;;;;2.10;1.35;;;;;;;9.54;100.00;100841.94;5070681;28;20033;-68
2023/04/27 04:01:56;;;;;;;2.90;2.13;;;;;;;9.52;100.00;100848.22;5064548;28;20032;-68
2023/04/27 04:04:22;;;;;;;3.20;1.20;;;;;;;9.57;100.00;100854.69;5052377;28;20107;-69
2023/04/27 04:06:47;;;;;;;5.45;1.90;;;;;;;9.61;100.00;100850.88;5063481;28;20045;-69
2023/04/27 04:09:13;;;;;;;4.65;2.03;;;;;;;9.65;100.00;100838.44;5067843;28;20028;-68
2023/04/27 04:11:38;;;;;;;3.72;1.90;;;;;;;9.65;100.00;100848.84;5063733;28;20044;-68
2023/04/27 04:14:04;;;;;;;3.35;1.33;;;;;;;9.64;100.00;100853.22;5062189;28;20032;-69
2023/04/27 04:16:29;;;;;;;3.58;1.70;;;;;;;9.64;100.00;100845.41;5065590;28;20444;-68
2023/04/27 04:18:55;;;;;;;2.40;1.65;;;;;;;9.64;100.00;100850.63;5068808;28;20028;-69
2023/04/27 04:21:20;;;;;;;4.95;1.90;;;;;;;9.63;100.00;100841.16;5059884;28;20040;-69
2023/04/27 04:23:46;;;;;;;4.05;2.15;;;;;;;9.59;100.00;100849.34;5063493;28;20044;-68
2023/04/27 04:26:13;;;;;;;3.70;1.52;;;;;;;9.59;100.00;100852.78;5064547;28;20082;-69
2023/04/27 04:28:39;;;;;;;5.25;2.08;;;;;;;9.57;100.00;100849.47;5059995;28;20032;-68
2023/04/27 04:31:05;;;;;;;3.03;2.13;;;;;;;9.58;100.00;100856.34;5064130;28;20060;-68
2023/04/27 04:33:30;;;;;;;4.35;2.10;;;;;;;9.60;100.00;100840.59;5060360;28;20097;-68
2023/04/27 04:35:57;;;;;;;3.60;2.05;;;;;;;9.62;100.00;100844.72;5065028;28;20446;-68
2023/04/27 04:38:23;;;;;;;3.63;2.17;;;;;;;9.64;100.00;100847.19;5067610;28;20038;-68
2023/04/27 04:40:49;;;;;;;5.95;2.92;;;;;;;9.69;100.00;100852.00;5060140;28;20475;-68
2023/04/27 04:43:14;;;;;;;4.03;1.88;;;;;;;9.69;100.00;100852.00;5068591;28;20028;-68
2023/04/27 04:45:41;;;;;;;4.18;1.25;;;;;;;9.77;100.00;100860.81;5071528;28;20117;-68
2023/04/27 04:48:07;;;;;;;5.03;1.80;;;;;;;9.87;100.00;100871.28;5061994;28;20024;-68
2023/04/27 04:50:32;;;;;;;5.30;2.03;;;;;;;9.90;100.00;100871.03;5062746;28;20025;-68
2023/04/27 04:52:58;;;;;;;6.50;1.95;;;;;;;9.90;100.00;100866.66;5068776;28;20455;-68
2023/04/27 04:55:26;;;;;;;2.88;1.83;;;;;;;9.96;100.00;100863.50;5069421;28;20120;-69
2023/04/27 04:57:51;;;;;;;4.82;2.08;;;;;;;10.02;100.00;100872.56;5070117;28;20089;-68
2023/04/27 05:00:17;;;;;;;1.83;1.30;;;;;;;10.14;100.00;100884.53;5068903;28;20025;-68
2023/04/27 05:02:42;;;;;;;4.60;2.08;;;;;;;10.19;100.00;100876.34;5069586;28;20047;-68
2023/04/27 05:05:08;;;;;;;4.97;2.20;;;;;;;10.26;100.00;100872.28;5063242;28;20045;-68
2023/04/27 05:07:34;;;;;;;6.10;1.92;;;;;;;10.29;100.00;100874.63;5070331;28;20032;-68
2023/04/27 05:09:59;;;;;;;2.42;1.30;;;;;;;10.34;100.00;100869.00;5070550;28;20040;-68
2023/04/27 05:12:25;;;;;;;2.50;1.33;;;;;;;10.46;100.00;100866.13;5068066;28;20032;-68
2023/04/27 05:14:51;;;;;;;3.60;1.02;;;;;;;10.55;97.67;100873.16;5070526;28;20028;-68
2023/04/27 05:17:16;;;;;;;1.92;0.82;;;;;;;10.70;96.97;100875.38;5068306;28;20028;-68
2023/04/27 05:19:42;;;;;;;4.70;1.05;;;;;;;10.76;93.76;100885.28;5071140;28;20029;-68
2023/04/27 05:22:07;;;;;;;2.78;1.13;;;;;;;10.82;93.49;100882.94;5069641;28;20095;-68
2023/04/27 05:24:33;;;;;;;2.42;1.00;;;;;;;10.85;92.37;100874.84;5076902;28;20028;-68
2023/04/27 05:26:58;;;;;;;2.75;0.70;;;;;;;10.91;92.16;100876.88;5066301;28;20032;-68
2023/04/27 05:29:24;;;;;;;1.55;0.80;;;;;;;11.01;91.86;100884.72;5073756;28;20020;-69
2023/04/27 05:31:49;;;;;;;1.77;1.17;;;;;;;11.21;91.21;100883.78;5064909;28;20052;-68
2023/04/27 05:34:15;;;;;;;3.70;0.98;;;;;;;11.33;90.16;100878.41;5070115;28;20083;-69
2023/04/27 05:36:41;;;;;;;3.20;1.10;;;;;;;11.28;89.88;100863.16;5070430;28;20422;-68
2023/04/27 05:39:06;;;;;;;2.42;0.73;;;;;;;11.21;90.32;100862.91;5073221;28;20051;-68
2023/04/27 05:41:32;;;;;;;2.13;1.58;;;;;;;11.20;91.99;100879.50;5049636;28;20035;-69
2023/04/27 05:43:57;;;;;;;4.88;1.15;;;;;;;11.19;89.89;100884.88;5066028;28;20028;-69
2023/04/27 05:46:23;;;;;;;4.20;1.00;;;;;;;11.24;87.98;100888.72;5065883;28;20033;-68
2023/04/27 05:48:48;;;;;;;2.47;0.80;;;;;;;11.29;88.98;100896.94;5068357;28;20025;-68
2023/04/27 05:51:14;;;;;;;2.88;1.23;;;;;;;11.34;90.88;100900.94;5069448;28;20038;-68
2023/04/27 05:53:40;;;;;;;1.38;0.50;;;;;;;11.30;90.84;100906.41;5070473;28;20081;-69
2023/04/27 05:56:06;;;;;;;3.08;2.00;;;;;;;11.34;90.87;100916.56;5072153;28;20036;-69
2023/04/27 05:58:32;;;;;;;2.60;0.93;;;;;;;11.32;91.01;100910.69;5069604;28;20071;-68
2023/04/27 06:00:59;;;;;;;4.50;1.27;;;;;;;11.34;91.78;100911.34;5072110;28;20507;-68
2023/04/27 06:03:24;;;;;;;3.00;0.90;;;;;;;11.35;90.38;100912.97;5068445;28;20036;-68
2023/04/27 06:05:54;;;;;;;1.80;0.63;;;;;;;11.36;88.98;100912.00;5067696;28;20048;-68
2023/04/27 06:08:20;;;;;;;2.70;0.73;;;;;;;11.38;87.71;100903.09;5070165;28;20047;-68
2023/04/27 06:10:45;;;;;;;3.05;0.95;;;;;;;11.42;87.97;100901.03;5066193;28;20036;-69
2023/04/27 06:13:11;;;;;;;2.38;0.77;;;;;;;11.45;87.24;100892.91;5063531;28;20025;-68
2023/04/27 06:15:36;;;;;;;3.95;0.80;;;;;;;11.51;87.05;100895.81;5054125;28;20030;-68
2023/04/27 06:18:01;;;;;;;1.58;0.68;;;;;;;11.56;85.63;100901.44;5057403;28;20405;-67
2023/04/27 06:20:27;;;;;;;3.97;1.20;;;;;;;11.64;85.57;100898.13;5058505;28;20037;-68
2023/04/27 06:22:52;;;;;;;4.13;1.83;;;;;;;11.66;84.81;100898.81;5061436;28;20032;-69
2023/04/27 06:25:18;;;;;;;2.33;1.10;;;;;;;11.74;83.87;100898.09;5061969;28;20041;-68
2023/04/27 06:27:43;;;;;;;2.25;1.00;;;;;;;11.84;84.18;100904.13;5069691;28;20093;-68
2023/04/27 06:30:09;;;;;;;2.42;0.77;;;;;;;11.84;82.44;100909.34;5057568;28;20062;-68
2023/04/27 06:32:35;;;;;;;2.70;0.75;;;;;;;11.87;82.39;100903.84;5062592;28;20058;-68
2023/04/27 06:35:00;;;;;;;1.60;0.80;;;;;;;11.93;82.71;100905.88;5060518;28;20032;-68
2023/04/27 06:37:26;;;;;;;4.05;0.80;;;;;;;12.04;82.79;100895.28;5055601;28;21234;-69
2023/04/27 06:39:51;;;;;;;3.47;0.90;;;;;;;12.09;82.49;100890.44;5067255;28;20044;-68
2023/04/27 06:42:17;;;;;;;3.17;0.50;;;;;;;12.16;82.43;100893.31;5069140;28;20029;-68
2023/04/27 06:44:42;;;;;;;2.85;0.70;;;;;;;12.25;81.77;100892.44;5069259;28;20032;-68
2023/04/27 06:47:08;;;;;;;2.08;0.68;;;;;;;12.36;80.54;100904.47;5067671;28;20093;-68
2023/04/27 06:49:33;;;;;;;1.83;0.52;;;;;;;12.47;79.55;100905.09;5065211;28;20543;-68
2023/04/27 06:52:01;;;;;;;3.10;0.65;;;;;;;12.58;79.42;100911.91;5069522;28;20032;-68
2023/04/27 06:54:27;;;;;;;1.83;0.60;;;;;;;12.73;79.51;100907.84;5066516;28;20047;-68
2023/04/27 06:56:53;;;;;;;3.67;0.85;;;;;;;12.94;79.10;100916.22;5069346;28;20040;-68
2023/04/27 06:59:19;;;;;;;1.85;0.80;;;;;;;13.07;79.09;100915.03;5067826;28;20040;-68
2023/04/27 07:01:45;;;;;;;3.08;0.90;;;;;;;13.06;79.58;100926.47;5065464;28;20040;-69
2023/04/27 07:04:10;;;;;;;5.03;0.85;;;;;;;13.05;79.60;100927.44;5062164;28;20505;-68
2023/04/27 07:06:36;;;;;;;1.58;0.60;;;;;;;13.04;78.55;100925.78;5068392;28;20048;-68
2023/04/27 07:09:04;;;;;;;1.98;0.50;;;;;;;13.09;79.44;100923.56;5069152;28;20033;-68
2023/04/27 07:11:30;;;;;;;2.88;1.08;;;;;;;13.13;79.82;100919.66;5066009;28;20465;-68
2023/04/27 07:13:55;;;;;;;1.73;0.50;;;;;;;13.08;78.99;100917.50;5064765;28;20050;-69
2023/04/27 07:16:21;;;;;;;2.50;1.27;;;;;;;13.05;79.61;100911.75;5065031;28;20039;-68
2023/04/27 07:18:46;;;;;;;1.85;0.75;;;;;;;13.13;80.49;100924.91;5068549;28;20056;-67
2023/04/27 07:21:12;;;;;;;3.55;0.80;;;;;;;13.15;81.01;100921.16;5067566;28;20033;-67
2023/04/27 07:23:40;;;;;;;2.35;0.90;;;;;;;13.16;80.75;100915.00;5067479;28;20028;-67
2023/04/27 07:26:06;;;;;;;1.85;0.70;;;;;;;13.20;79.93;100926.81;5058741;28;20037;-68
2023/04/27 07:28:34;;;;;;;4.47;1.10;;;;;;;13.27;80.08;100917.34;5065032;28;20471;-67
2023/04/27 07:31:00;;;;;;;1.88;0.95;;;;;;;13.35;81.04;100924.44;5062776;28;20028;-67
2023/04/27 07:33:26;;;;;;;11.82;1.40;;;;;;;13.41;81.41;100920.41;5066212;28;20055;-67
2023/04/27 07:35:52;;;;;;;5.50;1.67;;;;;;;13.45;81.06;100916.50;5069597;28;20036;-67
2023/04/27 07:38:18;;;;;;;2.92;0.50;;;;;;;13.45;80.91;100914.72;5063502;28;20455;-67
2023/04/27 07:40:45;;;;;;;3.75;0.88;;;;;;;13.46;80.06;100926.00;5072553;28;20068;-67
2023/04/27 07:43:10;;;;;;;1.75;0.82;;;;;;;13.48;79.09;100924.88;5068143;28;20078;-67
2023/04/27 07:45:38;;;;;;;3.33;0.60;;;;;;;13.58;78.03;100923.00;5056241;28;20033;-67
2023/04/27 07:48:04;;;;;;;4.80;0.40;;;;;;;13.72;77.69;100928.63;5059353;28;20128;-67
2023/04/27 07:50:30;;;;;;;1.40;0.55;;;;;;;13.88;77.82;100928.75;5061951;28;20050;-68
2023/04/27 07:52:56;;;;;;;2.70;0.70;;;;;;;14.02;77.56;100938.66;5064689;28;20471;-67
2023/04/27 07:55:23;;;;;;;3.58;0.90;;;;;;;14.11;77.08;100929.88;5062336;28;20392;-67
2023/04/27 07:57:49;;;;;;;13.75;0.93;;;;;;;14.20;77.65;100931.53;5064480;28;20044;-67
2023/04/27 08:00:15;;;;;;;2.78;0.60;;;;;;;14.27;77.61;100939.59;5067986;28;20537;-67
2023/04/27 08:02:40;;;;;;;3.47;0.98;;;;;;;14.32;76.89;100934.69;5062767;28;20032;-67
2023/04/27 08:05:06;;;;;;;3.08;0.65;;;;;;;14.43;76.74;100936.25;5060450;28;20152;-67
2023/04/27 08:07:33;;;;;;;1.95;0.63;;;;;;;14.52;76.40;100940.56;5063868;28;20102;-67
2023/04/27 08:09:58;;;;;;;2.50;0.70;;;;;;;14.47;75.45;100934.97;5064540;28;20028;-67
2023/04/27 08:12:24;;;;;;;1.60;0.60;;;;;;;14.53;74.17;100937.78;5064244;28;20032;-66
2023/04/27 08:14:50;;;;;;;2.40;0.50;;;;;;;14.63;73.76;100931.59;5067073;28;20060;-66
2023/04/27 08:17:17;;;;;;;1.77;0.47;;;;;;;14.83;72.55;100927.69;5065106;28;20064;-64
2023/04/27 08:19:43;;;;;;;1.10;0.60;;;;;;;15.09;70.98;100917.91;5068136;28;20028;-63
2023/04/27 08:22:08;;;;;;;1.75;0.50;;;;;;;14.97;71.05;100923.63;5065932;28;20052;-63
2023/04/27 08:24:34;;;;;;;2.65;0.82;;;;;;;15.06;71.59;100928.72;5071667;28;20059;-63
2023/04/27 08:26:59;;;;;;;2.85;0.63;;;;;;;15.10;70.47;100926.59;5067315;28;20500;-62
2023/04/27 08:29:25;;;;;;;6.45;0.70;;;;;;;15.06;70.77;100930.53;5070101;28;20147;-63
2023/04/27 08:31:50;;;;;;;4.68;0.50;;;;;;;15.14;70.52;100926.09;5069837;28;20029;-64
2023/04/27 08:34:16;;;;;;;4.60;0.68;;;;;;;15.31;71.21;100921.66;5068284;28;20469;-63
2023/04/27 08:36:42;;;;;;;2.33;0.50;;;;;;;15.32;71.34;100928.56;5074394;28;20124;-63
2023/04/27 08:39:07;;;;;;;6.45;0.80;;;;;;;15.33;70.95;100930.19;5070218;28;20130;-63
2023/04/27 08:41:33;;;;;;;3.20;0.80;;;;;;;15.27;69.83;100925.59;5070978;28;20048;-62
2023/04/27 08:43:59;;;;;;;5.07;1.05;;;;;;;15.26;68.63;100931.84;5071006;28;20367;-62
2023/04/27 08:46:27;;;;;;;2.85;0.63;;;;;;;15.17;69.04;100928.38;5070985;28;20110;-62
2023/04/27 08:48:53;;;;;;;2.88;0.50;;;;;;;15.19;69.25;100928.22;5071034;28;20086;-63
2023/04/27 08:51:20;;;;;;;4.63;0.50;;;;;;;15.17;68.89;100919.69;5069907;28;20025;-62
2023/04/27 08:53:51;;;;;;;13.32;1.83;;;;;;;15.17;68.11;100930.19;5070765;28;20041;-63
2023/04/27 08:56:22;;;;;;;4.75;1.10;;;;;;;15.27;67.77;100922.97;5069704;28;20496;-65
2023/04/27 08:58:48;;;;;;;9.40;1.50;;;;;;;15.30;68.53;100924.47;5053103;28;20037;-64
2023/04/27 09:01:13;;;;;;;3.47;0.60;;;;;;;15.42;68.94;100931.03;5072370;28;20086;-65
2023/04/27 09:03:39;;;;;;;1.50;0.40;;;;;;;15.31;67.92;100926.09;5073425;28;20119;-64
2023/04/27 09:06:06;;;;;;;2.28;0.50;;;;;;;15.21;67.93;100932.31;5069752;28;20131;-67
2023/04/27 09:08:47;;;;;;;1.80;0.50;;;;;;;15.30;67.57;100934.97;5069809;28;20036;-66
2023/04/27 09:11:28;;;;;;;2.67;0.40;;;;;;;15.26;66.48;100935.28;5070231;28;20029;-66
2023/04/27 09:13:53;;;;;;;4.45;0.50;;;;;;;15.36;68.26;100936.94;5074858;28;20043;-66
2023/04/27 09:16:33;;;;;;;1.00;0.35;;;;;;;15.39;68.29;100939.22;5071951;28;20036;-66
2023/04/27 09:18:59;;;;;;;2.97;0.47;;;;;;;15.40;69.99;100946.13;5045142;28;20434;-66
2023/04/27 09:21:30;;;;;;;2.40;0.50;;;;;;;15.40;70.69;100943.50;5069553;28;20078;-66
2023/04/27 09:23:56;;;;;;;1.75;0.30;;;;;;;15.41;70.56;100945.97;5072903;28;20047;-66
2023/04/27 09:26:26;;;;;;;1.55;0.43;;;;;;;15.53;70.20;100952.53;5069743;28;20062;-66
2023/04/27 09:28:54;;;;;;;2.28;0.40;;;;;;;15.63;70.17;100944.47;5070925;28;20028;-66
2023/04/27 09:31:20;;;;;;;3.33;0.50;;;;;;;15.73;70.71;100945.13;5069785;28;20640;-66
2023/04/27 09:33:53;;;;;;;1.15;0.40;;;;;;;15.88;69.90;100954.00;5073986;28;20040;-66
2023/04/27 09:36:19;;;;;;;2.08;0.50;;;;;;;15.83;68.72;100942.34;5068218;28;20033;-66
2023/04/27 09:38:46;;;;;;;1.42;0.50;;;;;;;15.87;67.30;100944.47;5070172;28;20048;-66
2023/04/27 09:41:12;;;;;;;3.55;0.70;;;;;;;16.01;67.02;100942.97;5070154;28;20064;-67
2023/04/27 09:43:38;;;;;;;1.58;0.40;;;;;;;16.00;65.50;100933.44;5073649;28;20043;-67
2023/04/27 09:46:04;;;;;;;2.60;0.40;;;;;;;16.00;65.88;100938.69;5067069;28;20041;-67
2023/04/27 09:48:30;;;;;;;1.52;0.60;;;;;;;16.19;66.38;100933.03;5065282;28;20035;-67
2023/04/27 09:50:55;;;;;;;2.33;0.55;;;;;;;16.20;65.51;100934.66;5069899;28;20029;-66
2023/04/27 09:53:45;;;;;;;1.35;0.43;;;;;;;16.10;62.58;100939.31;5043111;28;20033;-66
2023/04/27 09:56:40;;;;;;;2.10;0.70;;;;;;;16.00;59.09;100938.69;5067234;28;20036;-66
2023/04/27 09:59:27;;;;;;;5.53;0.60;;;;;;;15.96;59.68;100937.38;5052155;28;20042;-66
2023/04/27 10:02:00;;;;;;;1.88;0.40;;;;;;;15.95;62.50;100938.38;5066130;28;20481;-67
2023/04/27 10:04:53;;;;;;;1.77;0.52;;;;;;;16.32;63.29;100937.75;5069832;28;20036;-67
2023/04/27 10:07:20;;;;;;;4.63;0.57;;;;;;;16.43;61.43;100934.75;5067810;28;20511;-66
2023/04/27 10:09:48;;;;;;;1.25;0.50;;;;;;;16.32;62.07;100943.00;5070576;28;20028;-66
2023/04/27 10:12:18;;;;;;;1.27;0.50;;;;;;;16.11;61.06;100940.94;5074080;28;20132;-66
2023/04/27 10:14:57;;;;;;;1.13;0.40;;;;;;;16.11;60.47;100940.94;5069614;28;20055;-66
2023/04/27 10:17:35;;;;;;;2.72;0.50;;;;;;;16.05;58.21;100931.13;5068991;28;20048;-65
2023/04/27 10:20:06;;;;;;;1.88;0.40;;;;;;;16.12;61.26;100937.31;5064447;28;20045;-65
2023/04/27 10:22:46;;;;;;;2.83;0.40;;;;;;;16.24;57.62;100930.72;5066410;28;20028;-65
2023/04/27 10:25:12;;;;;;;1.33;0.35;;;;;;;16.66;61.23;100926.94;5067410;28;20040;-65
2023/04/27 10:27:38;;;;;;;1.20;0.38;;;;;;;16.67;59.71;100920.69;5067041;28;20029;-65
2023/04/27 10:30:11;;;;;;;1.10;0.60;;;;;;;16.75;58.45;100917.19;5067364;28;20158;-65
2023/04/27 10:32:37;;;;;;;2.63;0.65;;;;;;;16.86;58.80;100904.47;5067367;28;20036;-65
2023/04/27 10:35:08;;;;;;;2.53;0.40;;;;;;;16.90;57.79;100913.66;5070158;28;20488;-65
2023/04/27 10:37:43;;;;;;;1.45;0.40;;;;;;;16.93;57.17;100907.22;5066188;28;20032;-65
2023/04/27 10:40:13;;;;;;;2.72;0.40;;;;;;;17.18;59.04;100908.66;5062659;28;20495;-66
2023/04/27 10:42:40;;;;;;;2.38;0.55;;;;;;;17.25;58.80;100906.13;5072110;28;20031;-66
2023/04/27 10:45:06;;;;;;;1.13;0.50;;;;;;;17.28;58.03;100903.16;5065549;28;20029;-65
2023/04/27 10:47:39;;;;;;;1.38;0.40;;;;;;;17.43;57.68;100905.81;5059310;28;20064;-65
2023/04/27 10:50:12;;;;;;;1.58;0.32;;;;;;;17.54;56.87;100898.28;5067783;28;20032;-65
2023/04/27 10:52:48;;;;;;;1.20;0.45;;;;;;;17.49;56.71;100905.09;5062864;28;20433;-65
2023/04/27 10:55:19;;;;;;;1.40;0.20;;;;;;;17.51;56.65;100903.91;5061823;28;20556;-65
2023/04/27 10:57:54;;;;;;;1.95;0.20;;;;;;;17.71;54.24;100895.53;5066742;28;20029;-65
2023/04/27 11:00:28;;;;;;;1.48;0.20;;;;;;;17.72;55.09;100895.34;5042706;28;20020;-65
2023/04/27 11:02:55;;;;;;;1.90;0.25;;;;;;;17.71;53.94;100899.00;5063742;28;20097;-65
2023/04/27 11:05:28;;;;;;;2.47;0.20;;;;;;;17.53;53.94;100895.84;5064069;28;20039;-65
2023/04/27 11:08:15;;;;;;;1.80;0.20;;;;;;;17.51;53.98;100892.56;5064597;28;20522;-65
2023/04/27 11:10:49;;;;;;;0.70;0.20;;;;;;;17.25;52.40;100890.34;5068772;28;20119;-65
2023/04/27 11:13:25;;;;;;;1.27;0.30;;;;;;;17.15;48.11;100895.84;5063837;28;20078;-65
2023/04/27 11:15:56;;;;;;;2.15;0.20;;;;;;;17.21;48.65;100887.25;5071772;28;20390;-65
2023/04/27 11:18:24;;;;;;;0.75;0.10;;;;;;;17.33;51.01;100885.00;5063775;28;20039;-65
2023/04/27 11:20:53;;;;;;;0.60;0.10;;;;;;;17.43;50.35;100887.41;5066308;28;20082;-65
2023/04/27 11:23:23;;;;;;;2.13;0.13;;;;;;;17.46;49.82;100879.94;5067754;28;20029;-65